Cairo, Missouri
Current Conditions -  °F | °C
As of 8:35 PM on Wednesday 22 Oct 2014 (Local Time) from KVER Reporting Station
Haze Haze  
Wind Chill: 13°   Ceiling: Unl
Heat Index: 13°   Visibility: 3mi
Dew Point:   Wind: 7mph
Humidity: 66%   Direction: 120°ESE
Pressure: 30.17"   Gusts: NA
Location:  39.51°N, 92.44°W
Report Text: KVER 230135Z AUTO 12006KT 3SM HZ CLR 13/06 A3017 RMK AO2 T01260064
Loading
Personal Weather Stations






























Interactive Weather Map
Tropical Storm Tracking
New forecast layout! Learn more

10-Day Weather Forecast

Advertisements
Track Severe Weather on mobile